Time;durP1;ratioP1;P1;durP2;ratioP2;P2;SDS_P1;SDS_P2;PMS_P1;PMS_P2;Temp;Humidity;BMP_temperature;BMP_pressure;BME280_temperature;BME280_humidity;BME280_pressure;Samples;Min_cycle;Max_cycle;Signal;HPM_P1;HPM_P2
2022/06/06 00:01:56;;;;;;;;;;;;;;;27.15;41.90;94517.81;4887345;29;9408;-64
2022/06/06 00:04:29;;;;;;;;;;;;;;;27.14;41.63;94530.16;4885491;29;7903;-64
2022/06/06 00:06:58;;;;;;;;;;;;;;;27.14;41.48;94519.09;4895166;29;7192;-64
2022/06/06 00:09:28;;;;;;;;;;;;;;;27.13;41.68;94517.59;4927861;28;9393;-64
2022/06/06 00:11:59;;;;;;;;;;;;;;;27.13;41.72;94511.31;4969138;28;9494;-64
2022/06/06 00:14:25;;;;;;;;;;;;;;;27.13;41.68;94516.84;4995428;28;7003;-64
2022/06/06 00:16:52;;;;;;;;;;;;;;;27.13;41.85;94509.31;5013749;28;9045;-64
2022/06/06 00:19:45;;;;;;;;;;;;;;;27.11;42.34;94506.31;4995462;28;8748;-64
2022/06/06 00:22:12;;;;;;;;;;;;;;;27.10;42.04;94504.81;4952689;29;7622;-64
2022/06/06 00:24:48;;;;;;;;;;;;;;;27.09;41.71;94503.34;4953014;28;7390;-64
2022/06/06 00:27:23;;;;;;;;;;;;;;;27.10;41.50;94502.06;4955302;28;7850;-64
2022/06/06 00:29:53;;;;;;;;;;;;;;;27.08;41.95;94504.59;4971207;28;7378;-64
2022/06/06 00:35:14;;;;;;;;;;;;;;;27.10;42.41;94502.06;4954449;28;7092;-64
2022/06/06 00:37:49;;;;;;;;;;;;;;;27.10;42.05;94501.34;4971697;28;7222;-64
2022/06/06 00:40:39;;;;;;;;;;;;;;;27.10;42.34;94506.84;4969591;28;9194;-64
2022/06/06 00:43:05;;;;;;;;;;;;;;;27.10;41.65;94510.34;4971325;28;7305;-64
2022/06/06 00:45:36;;;;;;;;;;;;;;;27.10;42.12;94509.63;4970104;28;7216;-64
2022/06/06 00:48:11;;;;;;;;;;;;;;;27.09;41.66;94503.34;4944335;29;9463;-64
2022/06/06 00:51:20;;;;;;;;;;;;;;;27.08;41.73;94501.81;4936424;28;6975;-64
2022/06/06 00:54:22;;;;;;;;;;;;;;;27.07;42.27;94500.34;4936139;29;7363;-64
2022/06/06 00:56:57;;;;;;;;;;;;;;;27.05;41.66;94505.66;4913441;29;7515;-64
2022/06/06 01:00:19;;;;;;;;;;;;;;;27.05;41.58;94489.09;4922216;29;9528;-64
2022/06/06 01:03:03;;;;;;;;;;;;;;;27.06;42.32;94490.56;4861923;29;9386;-63
2022/06/06 01:05:30;;;;;;;;;;;;;;;27.04;41.76;94495.84;4843103;29;7035;-64
2022/06/06 01:07:56;;;;;;;;;;;;;;;27.04;42.07;94493.09;4860922;29;7087;-64
2022/06/06 01:10:26;;;;;;;;;;;;;;;27.04;42.44;94492.34;4875370;29;7001;-64
2022/06/06 01:13:15;;;;;;;;;;;;;;;27.05;42.22;94489.09;4859613;29;7183;-64
2022/06/06 01:15:59;;;;;;;;;;;;;;;27.05;41.73;94483.56;4860982;29;7248;-64
2022/06/06 01:19:06;;;;;;;;;;;;;;;27.05;41.57;94482.81;4842298;29;7251;-64
2022/06/06 01:21:54;;;;;;;;;;;;;;;27.04;42.23;94486.81;4828907;29;7504;-64
2022/06/06 01:24:40;;;;;;;;;;;;;;;27.03;41.38;94480.56;4857224;29;6869;-64
2022/06/06 01:27:28;;;;;;;;;;;;;;;27.03;42.07;94480.56;4860659;29;7029;-64
2022/06/06 01:30:10;;;;;;;;;;;;;;;27.02;41.83;94486.59;4883431;29;7337;-64
2022/06/06 01:32:42;;;;;;;;;;;;;;;27.01;41.69;94483.09;4939117;28;8724;-64
2022/06/06 01:35:42;;;;;;;;;;;;;;;27.01;42.03;94472.06;5015329;28;7267;-64
2022/06/06 01:38:28;;;;;;;;;;;;;;;27.00;42.04;94476.06;5033087;28;7269;-64
2022/06/06 01:41:13;;;;;;;;;;;;;;;26.98;42.25;94464.81;5015863;28;7280;-64
2022/06/06 01:43:50;;;;;;;;;;;;;;;26.99;41.51;94463.53;5014105;28;8599;-64
2022/06/06 01:46:36;;;;;;;;;;;;;;;26.99;41.70;94458.00;5015192;28;7251;-64
2022/06/06 01:49:12;;;;;;;;;;;;;;;26.97;41.89;94466.06;5015281;28;8605;-64
2022/06/06 01:52:18;;;;;;;;;;;;;;;26.98;41.55;94453.00;4997999;28;9031;-64
2022/06/06 01:54:55;;;;;;;;;;;;;;;26.95;41.76;94452.03;4997866;28;8924;-64
2022/06/06 01:57:23;;;;;;;;;;;;;;;26.94;42.04;94436.75;5009250;28;7025;-64
2022/06/06 01:59:59;;;;;;;;;;;;;;;26.92;41.82;94431.00;5016962;28;7391;-64
2022/06/06 02:02:31;;;;;;;;;;;;;;;26.92;42.09;94437.25;5001142;28;6993;-64
2022/06/06 02:04:59;;;;;;;;;;;;;;;26.94;41.91;94436.75;5016939;28;7301;-64
2022/06/06 02:07:25;;;;;;;;;;;;;;;26.91;41.89;94435.00;5024325;28;8777;-64
2022/06/06 02:09:51;;;;;;;;;;;;;;;26.92;41.88;94444.81;5011944;28;8231;-64
2022/06/06 02:12:20;;;;;;;;;;;;;;;26.90;42.08;94437.03;5020294;28;9096;-64
2022/06/06 02:14:47;;;;;;;;;;;;;;;26.88;42.35;94431.28;5014204;28;7957;-64
2022/06/06 02:17:22;;;;;;;;;;;;;;;26.88;41.84;94422.25;5009053;28;9469;-64
2022/06/06 02:20:02;;;;;;;;;;;;;;;26.87;42.55;94424.28;5014823;28;7176;-64
2022/06/06 02:22:34;;;;;;;;;;;;;;;26.87;42.32;94423.53;4996756;28;9030;-64
2022/06/06 02:25:02;;;;;;;;;;;;;;;26.87;42.00;94423.53;5001159;28;7228;-64
2022/06/06 02:27:28;;;;;;;;;;;;;;;26.87;42.06;94423.53;5003932;28;9252;-64
2022/06/06 02:29:56;;;;;;;;;;;;;;;26.86;42.48;94422.03;5017218;28;7237;-64
2022/06/06 02:32:24;;;;;;;;;;;;;;;26.85;42.48;94431.56;5003386;28;7219;-64
2022/06/06 02:34:50;;;;;;;;;;;;;;;26.83;42.65;94420.31;5012670;28;7484;-64
2022/06/06 02:37:21;;;;;;;;;;;;;;;26.83;42.38;94421.06;4979401;28;7376;-64
2022/06/06 02:39:49;;;;;;;;;;;;;;;26.82;42.54;94408.50;4998777;28;7240;-64
2022/06/06 02:42:21;;;;;;;;;;;;;;;26.81;41.92;94407.03;5012968;28;6990;-63
2022/06/06 02:44:48;;;;;;;;;;;;;;;26.83;41.78;94412.78;5010488;28;8961;-64
2022/06/06 02:47:14;;;;;;;;;;;;;;;26.84;42.46;94405.22;4992826;28;10241;-64
2022/06/06 02:49:40;;;;;;;;;;;;;;;26.82;42.55;94411.28;4993365;28;8799;-64
2022/06/06 02:52:07;;;;;;;;;;;;;;;26.79;42.23;94404.03;4992777;28;9058;-64
2022/06/06 02:54:34;;;;;;;;;;;;;;;26.78;41.68;94410.81;5008459;28;7251;-64
2022/06/06 02:57:03;;;;;;;;;;;;;;;26.77;42.61;94398.28;5010671;28;7202;-64
2022/06/06 02:59:34;;;;;;;;;;;;;;;26.78;42.45;94399.03;5029798;28;9162;-64
2022/06/06 03:02:02;;;;;;;;;;;;;;;26.78;42.62;94399.78;5009121;28;7265;-64
2022/06/06 03:04:31;;;;;;;;;;;;;;;26.80;41.85;94396.50;4993990;28;7129;-64
2022/06/06 03:07:28;;;;;;;;;;;;;;;26.78;41.69;94397.03;5008934;28;7260;-64
2022/06/06 03:10:25;;;;;;;;;;;;;;;26.78;41.68;94399.03;4992136;28;7236;-64
2022/06/06 03:13:13;;;;;;;;;;;;;;;26.78;41.97;94397.03;5021102;28;9124;-64
2022/06/06 03:22:49;;;;;;;;;;;;;;;26.76;42.55;94418.13;5013486;28;9091;-64
2022/06/06 03:25:30;;;;;;;;;;;;;;;26.74;42.32;94410.38;4934369;28;9385;-64
2022/06/06 03:28:14;;;;;;;;;;;;;;;26.72;41.99;94407.34;4952286;28;9004;-64
2022/06/06 03:31:07;;;;;;;;;;;;;;;26.73;42.29;94419.91;4952965;28;7329;-64
2022/06/06 03:33:57;;;;;;;;;;;;;;;26.72;42.61;94414.88;4936756;28;7482;-64
2022/06/06 03:36:27;;;;;;;;;;;;;;;26.72;41.80;94414.88;4936731;28;7896;-64
2022/06/06 03:39:13;;;;;;;;;;;;;;;26.72;41.89;94417.63;4948313;28;7285;-64
2022/06/06 03:42:16;;;;;;;;;;;;;;;26.70;41.84;94409.88;4951472;28;9591;-64
2022/06/06 03:45:26;;;;;;;;;;;;;;;26.70;42.76;94414.66;4952383;28;8191;-64
2022/06/06 03:48:23;;;;;;;;;;;;;;;26.69;41.87;94418.66;4948775;28;6998;-64
2022/06/06 03:50:51;;;;;;;;;;;;;;;26.70;42.76;94420.91;4949416;28;7250;-64
2022/06/06 03:53:50;;;;;;;;;;;;;;;26.70;42.23;94420.16;4952703;28;8764;-63
2022/06/06 03:56:42;;;;;;;;;;;;;;;26.70;41.79;94425.69;4935515;28;7702;-64
2022/06/06 03:59:29;;;;;;;;;;;;;;;26.69;42.13;94421.41;4950095;28;9180;-64
2022/06/06 04:02:16;;;;;;;;;;;;;;;26.68;42.68;94422.69;5002494;28;7217;-64
2022/06/06 04:04:55;;;;;;;;;;;;;;;26.67;42.47;94421.94;4996196;28;8786;-64
2022/06/06 04:07:21;;;;;;;;;;;;;;;26.68;42.01;94417.94;4998664;28;9032;-64
2022/06/06 04:09:47;;;;;;;;;;;;;;;26.70;42.67;94425.69;5015306;28;7224;-64
2022/06/06 04:12:35;;;;;;;;;;;;;;;26.68;42.70;94434.50;5030326;28;9346;-64
2022/06/06 04:15:37;;;;;;;;;;;;;;;26.66;42.45;94439.78;5012588;28;9109;-64
2022/06/06 04:18:26;;;;;;;;;;;;;;;26.66;41.94;94431.50;4986010;28;7396;-64
2022/06/06 04:21:16;;;;;;;;;;;;;;;26.66;42.16;94437.00;5015378;28;7306;-64
2022/06/06 04:23:45;;;;;;;;;;;;;;;26.67;41.89;94437.75;5032963;28;9246;-64
2022/06/06 04:26:56;;;;;;;;;;;;;;;26.68;42.18;94439.25;5013984;28;8956;-64
2022/06/06 04:29:50;;;;;;;;;;;;;;;26.68;41.79;94436.50;5027757;28;9742;-64
2022/06/06 04:33:03;;;;;;;;;;;;;;;26.67;41.81;94437.75;5015195;28;7024;-64
2022/06/06 04:35:53;;;;;;;;;;;;;;;26.64;42.29;94438.78;4955577;28;7275;-64
2022/06/06 04:38:56;;;;;;;;;;;;;;;26.63;42.80;94443.56;4971096;28;9176;-64
2022/06/06 04:41:38;;;;;;;;;;;;;;;26.63;42.83;94437.28;4971629;28;8255;-64
2022/06/06 04:44:34;;;;;;;;;;;;;;;26.63;42.44;94442.81;4967948;28;7148;-64
2022/06/06 04:47:27;;;;;;;;;;;;;;;26.64;41.91;94439.53;4970801;28;7261;-64
2022/06/06 04:49:57;;;;;;;;;;;;;;;26.64;42.70;94450.56;4954229;28;7327;-63
2022/06/06 04:52:25;;;;;;;;;;;;;;;26.64;42.44;94449.81;4970453;28;7201;-64
2022/06/06 04:55:02;;;;;;;;;;;;;;;26.64;42.67;94455.34;4970860;28;7519;-64
2022/06/06 04:57:46;;;;;;;;;;;;;;;26.62;41.88;94453.09;4971276;28;7328;-64
2022/06/06 05:00:21;;;;;;;;;;;;;;;26.63;41.96;94453.84;4939150;28;9221;-64
2022/06/06 05:02:50;;;;;;;;;;;;;;;26.64;42.21;94458.09;4957470;28;9046;-64
2022/06/06 05:05:25;;;;;;;;;;;;;;;26.63;42.11;94456.59;4958422;28;6975;-63
2022/06/06 05:08:01;;;;;;;;;;;;;;;26.61;42.17;94448.84;4975339;28;8939;-64
2022/06/06 05:10:42;;;;;;;;;;;;;;;26.61;41.86;94451.59;4958672;28;7271;-63
2022/06/06 05:13:59;;;;;;;;;;;;;;;26.61;42.82;94448.84;5003202;28;7639;-64
2022/06/06 05:17:09;;;;;;;;;;;;;;;26.60;42.29;94444.56;4955351;28;8029;-64
2022/06/06 05:24:03;;;;;;;;;;;;;;;26.61;42.76;94445.34;4880346;29;8053;-63
2022/06/06 05:27:03;;;;;;;;;;;;;;;26.60;42.44;94441.81;4889658;29;7423;-64
2022/06/06 05:30:17;;;;;;;;;;;;;;;26.61;42.85;94439.81;4843006;29;8777;-64
2022/06/06 05:33:20;;;;;;;;;;;;;;;26.59;41.94;94453.38;4853231;29;7329;-64
2022/06/06 05:36:07;;;;;;;;;;;;;;;26.58;42.42;94451.88;4857455;29;7074;-63
2022/06/06 05:38:44;;;;;;;;;;;;;;;26.58;42.16;94446.34;4853967;29;7057;-64
2022/06/06 05:41:29;;;;;;;;;;;;;;;26.58;42.06;94462.91;4860684;29;7207;-64
2022/06/06 05:44:43;;;;;;;;;;;;;;;26.57;42.84;94462.19;4860562;29;7082;-64
2022/06/06 05:47:52;;;;;;;;;;;;;;;26.56;42.28;94463.44;4835531;29;9537;-64
2022/06/06 05:50:57;;;;;;;;;;;;;;;26.58;42.54;94468.41;4808669;29;7440;-64
2022/06/06 05:54:10;;;;;;;;;;;;;;;26.57;42.58;94470.44;4843896;29;7347;-64
2022/06/06 05:56:38;;;;;;;;;;;;;;;26.57;42.60;94475.97;4857518;29;9072;-63
2022/06/06 05:59:43;;;;;;;;;;;;;;;26.57;42.93;94469.69;4856327;29;8974;-64
2022/06/06 06:02:12;;;;;;;;;;;;;;;26.57;42.95;94472.47;4771519;30;9510;-64
2022/06/06 06:05:15;;;;;;;;;;;;;;;26.58;41.83;94484.97;4805906;29;7390;-64
2022/06/06 06:07:43;;;;;;;;;;;;;;;26.56;42.96;94484.75;4857301;29;9455;-64
2022/06/06 06:10:11;;;;;;;;;;;;;;;26.55;42.73;94481.25;4858002;29;9129;-64
2022/06/06 06:13:08;;;;;;;;;;;;;;;26.52;42.27;94485.03;4857294;29;7252;-64
2022/06/06 06:15:40;;;;;;;;;;;;;;;26.53;42.40;94488.53;4856968;29;7335;-64
2022/06/06 06:18:15;;;;;;;;;;;;;;;26.55;42.37;94488.78;4838980;29;7075;-64
2022/06/06 06:20:51;;;;;;;;;;;;;;;26.57;42.68;94486.25;4855308;29;7388;-64
2022/06/06 06:23:24;;;;;;;;;;;;;;;26.55;42.73;94491.53;4894636;29;9602;-64
2022/06/06 06:25:53;;;;;;;;;;;;;;;26.55;42.21;94494.28;4910667;29;7273;-64
2022/06/06 06:28:18;;;;;;;;;;;;;;;26.56;42.49;94495.78;4903590;29;9780;-63
2022/06/06 06:31:05;;;;;;;;;;;;;;;26.55;42.61;94492.28;4892675;29;9124;-64
2022/06/06 06:33:40;;;;;;;;;;;;;;;26.56;42.06;94496.53;4895608;29;9026;-64
2022/06/06 06:36:30;;;;;;;;;;;;;;;26.55;41.89;94494.28;4943828;28;9368;-64
2022/06/06 06:39:31;;;;;;;;;;;;;;;26.53;42.75;94500.34;5014451;28;7321;-64
2022/06/06 06:42:27;;;;;;;;;;;;;;;26.52;42.40;94509.09;5007974;28;7504;-64
2022/06/06 06:45:08;;;;;;;;;;;;;;;26.49;41.95;94510.88;4993345;28;9390;-65
2022/06/06 06:47:36;;;;;;;;;;;;;;;26.48;42.42;94514.16;4993014;28;7285;-63
2022/06/06 06:50:23;;;;;;;;;;;;;;;26.51;42.79;94519.38;5014025;28;6971;-64
2022/06/06 06:53:10;;;;;;;;;;;;;;;26.50;42.64;94520.66;5012213;28;7976;-64
2022/06/06 06:56:16;;;;;;;;;;;;;;;26.49;42.98;94519.16;5008216;28;6997;-63
2022/06/06 06:59:03;;;;;;;;;;;;;;;26.50;42.39;94528.94;5010596;28;7302;-64
2022/06/06 07:08:55;;;;;;;;;;;;;;;26.47;42.30;94534.75;4952772;28;8682;-63
2022/06/06 07:12:02;;;;;;;;;;;;;;;26.47;42.65;94534.75;4936578;28;7301;-64
2022/06/06 07:14:52;;;;;;;;;;;;;;;26.46;42.36;94533.97;4866379;29;9250;-63
2022/06/06 07:17:20;;;;;;;;;;;;;;;26.45;42.03;94538.00;4873307;29;9472;-64
2022/06/06 07:20:08;;;;;;;;;;;;;;;26.46;42.14;94533.97;4865522;29;8439;-64
2022/06/06 07:23:02;;;;;;;;;;;;;;;26.45;42.31;94543.50;4857230;29;9465;-63
2022/06/06 07:25:53;;;;;;;;;;;;;;;26.44;42.15;94544.03;4858952;29;7211;-64
2022/06/06 07:28:24;;;;;;;;;;;;;;;26.43;42.14;94540.53;4855925;29;7893;-64
2022/06/06 07:30:57;;;;;;;;;;;;;;;26.44;42.47;94546.78;4857421;29;7203;-64
2022/06/06 07:33:43;;;;;;;;;;;;;;;26.45;42.48;94542.75;4854548;29;9062;-64
2022/06/06 07:36:27;;;;;;;;;;;;;;;26.43;42.17;94545.28;4854849;29;7294;-64
2022/06/06 07:39:15;;;;;;;;;;;;;;;26.42;43.08;94541.78;4855477;29;9340;-64
2022/06/06 07:41:59;;;;;;;;;;;;;;;26.42;43.16;94543.78;4929671;29;9475;-64
2022/06/06 07:44:33;;;;;;;;;;;;;;;26.42;42.64;94543.78;4939600;28;7401;-64
2022/06/06 07:47:02;;;;;;;;;;;;;;;26.41;42.97;94548.56;5011686;28;9535;-64
2022/06/06 07:50:14;;;;;;;;;;;;;;;26.42;43.13;94555.59;5010546;28;6997;-64
2022/06/06 07:53:19;;;;;;;;;;;;;;;26.42;42.03;94552.06;5009078;28;7255;-63
2022/06/06 07:56:22;;;;;;;;;;;;;;;26.42;42.58;94549.31;5033321;28;9120;-63
2022/06/06 07:59:16;;;;;;;;;;;;;;;26.42;42.05;94549.31;5031735;28;7434;-64
2022/06/06 08:02:03;;;;;;;;;;;;;;;26.42;43.03;94547.31;5025521;28;9516;-63
2022/06/06 08:05:24;;;;;;;;;;;;;;;26.41;41.92;94542.28;4995784;28;7275;-64
2022/06/06 08:08:11;;;;;;;;;;;;;;;26.42;42.58;94539.03;5012684;28;7182;-64
2022/06/06 08:10:43;;;;;;;;;;;;;;;26.41;42.75;94540.28;5011830;28;7514;-64
2022/06/06 08:13:32;;;;;;;;;;;;;;;26.42;42.08;94541.03;4994787;28;7003;-64
2022/06/06 08:16:19;;;;;;;;;;;;;;;26.40;42.20;94540.81;5012359;28;7256;-63
2022/06/06 08:19:23;;;;;;;;;;;;;;;26.40;42.89;94536.03;4916244;29;9109;-64
2022/06/06 08:21:51;;;;;;;;;;;;;;;26.41;42.83;94536.78;4933332;29;9299;-64
2022/06/06 08:24:51;;;;;;;;;;;;;;;26.40;42.97;94529.78;4933541;29;8903;-64
2022/06/06 08:27:39;;;;;;;;;;;;;;;26.40;42.83;94527.00;4857823;29;9084;-64
2022/06/06 08:30:07;;;;;;;;;;;;;;;26.41;42.04;94525.75;4858317;29;9092;-63
2022/06/06 08:32:33;;;;;;;;;;;;;;;26.40;42.04;94522.25;4857992;29;8945;-64
2022/06/06 08:35:52;;;;;;;;;;;;;;;26.41;42.59;94518.22;4858052;29;7052;-64
2022/06/06 08:38:56;;;;;;;;;;;;;;;26.42;42.42;94518.97;4861696;29;7359;-63
2022/06/06 08:41:35;;;;;;;;;;;;;;;26.42;42.82;94516.22;4861556;29;7011;-64
2022/06/06 08:44:39;;;;;;;;;;;;;;;26.42;42.52;94514.22;4860991;29;9378;-64
2022/06/06 08:47:05;;;;;;;;;;;;;;;26.42;42.11;94505.19;4846455;29;9107;-64
2022/06/06 08:53:17;;;;;;;;;;;;;;;26.41;43.10;94506.44;4861123;29;7899;-64
2022/06/06 08:56:20;;;;;;;;;;;;;;;26.42;42.31;94499.66;4892364;29;7470;-63
2022/06/06 08:59:24;;;;;;;;;;;;;;;26.43;42.06;94501.16;4936267;29;8725;-63
2022/06/06 09:02:29;;;;;;;;;;;;;;;26.42;42.64;94496.91;4918199;29;7442;-64
2022/06/06 09:05:03;;;;;;;;;;;;;;;26.42;42.07;94494.91;5018277;28;9887;-63
2022/06/06 09:08:07;;;;;;;;;;;;;;;26.43;42.67;94495.63;5018456;28;9150;-64
2022/06/06 09:11:24;;;;;;;;;;;;;;;26.44;42.63;94486.88;5014033;28;7263;-64
2022/06/06 09:14:01;;;;;;;;;;;;;;;26.43;42.65;94490.88;4974668;28;7029;-64
2022/06/06 09:17:08;;;;;;;;;;;;;;;26.44;42.99;94480.59;4969909;28;7490;-63
2022/06/06 09:20:01;;;;;;;;;;;;;;;26.44;42.42;94475.06;4955516;28;7234;-63
2022/06/06 09:22:46;;;;;;;;;;;;;;;26.44;42.75;94480.59;4954920;28;7324;-63
2022/06/06 09:25:23;;;;;;;;;;;;;;;26.45;43.04;94473.81;4954222;28;7006;-64
2022/06/06 09:28:21;;;;;;;;;;;;;;;26.45;42.61;94471.03;4955510;28;7006;-63
2022/06/06 09:31:09;;;;;;;;;;;;;;;26.45;42.14;94466.28;4969951;28;7377;-64
2022/06/06 09:33:42;;;;;;;;;;;;;;;26.44;42.88;94470.31;4952613;28;8584;-64
2022/06/06 09:36:23;;;;;;;;;;;;;;;26.47;42.99;94472.03;4956709;28;8434;-63
2022/06/06 09:39:16;;;;;;;;;;;;;;;26.50;43.06;94473.00;4965253;28;7273;-63
2022/06/06 09:42:11;;;;;;;;;;;;;;;26.48;42.68;94475.53;4951518;28;7634;-63
2022/06/06 09:45:29;;;;;;;;;;;;;;;26.50;43.08;94464.75;4955431;28;7061;-63
2022/06/06 09:51:43;;;;;;;;;;;;;;;26.49;42.48;94464.00;5015337;28;7055;-63
2022/06/06 10:01:11;;;;;;;;;;;;;;;26.51;42.24;94464.22;5017255;28;7353;-64
2022/06/06 10:04:14;;;;;;;;;;;;;;;26.52;42.51;94459.47;5015514;28;9225;-64
2022/06/06 10:06:55;;;;;;;;;;;;;;;26.54;42.72;94462.44;4997594;28;7314;-63
2022/06/06 10:10:11;;;;;;;;;;;;;;;26.54;42.37;94460.44;5014035;28;7075;-64
2022/06/06 10:12:56;;;;;;;;;;;;;;;26.55;42.38;94453.69;4990218;28;7147;-63
2022/06/06 10:15:50;;;;;;;;;;;;;;;26.56;42.32;94451.63;5017177;28;7358;-63
2022/06/06 10:19:01;;;;;;;;;;;;;;;26.56;42.78;94448.88;5013068;28;8818;-63
2022/06/06 10:22:17;;;;;;;;;;;;;;;26.55;43.04;94445.41;5001704;28;8762;-64
2022/06/06 10:24:59;;;;;;;;;;;;;;;26.56;42.70;94444.13;4934615;29;6869;-63
2022/06/06 10:28:03;;;;;;;;;;;;;;;26.57;42.42;94442.13;4935501;28;7305;-63
2022/06/06 10:31:01;;;;;;;;;;;;;;;26.57;42.59;94451.16;4915229;29;9028;-63
2022/06/06 10:33:28;;;;;;;;;;;;;;;26.59;42.71;94447.84;4914998;29;9417;-64
2022/06/06 10:36:02;;;;;;;;;;;;;;;26.61;42.10;94442.56;4906082;29;8780;-63
2022/06/06 10:38:51;;;;;;;;;;;;;;;26.60;42.76;94438.34;4897958;29;9239;-63
2022/06/06 10:41:36;;;;;;;;;;;;;;;26.60;42.92;94435.56;4912117;29;7227;-63
2022/06/06 10:44:24;;;;;;;;;;;;;;;26.60;42.15;94441.09;4896498;29;9097;-63
2022/06/06 10:47:02;;;;;;;;;;;;;;;26.62;42.41;94438.56;4878091;29;7259;-63
2022/06/06 10:49:41;;;;;;;;;;;;;;;26.63;41.89;94437.28;4899979;29;7383;-63
2022/06/06 10:52:23;;;;;;;;;;;;;;;26.63;42.02;94437.28;4915166;29;7309;-63
2022/06/06 10:55:04;;;;;;;;;;;;;;;26.65;42.20;94434.75;4914296;29;9092;-63
2022/06/06 10:57:59;;;;;;;;;;;;;;;26.66;42.70;94436.25;4912686;29;7585;-63
2022/06/06 11:01:08;;;;;;;;;;;;;;;26.68;42.20;94428.22;4947207;28;7073;-63
2022/06/06 11:04:20;;;;;;;;;;;;;;;26.70;42.04;94417.41;5013733;28;7008;-63
2022/06/06 11:07:05;;;;;;;;;;;;;;;26.70;42.63;94414.66;4914164;29;9893;-63
2022/06/06 11:09:55;;;;;;;;;;;;;;;26.71;42.85;94416.13;4914854;29;7531;-64
2022/06/06 11:13:10;;;;;;;;;;;;;;;26.72;41.78;94406.59;4918212;29;9182;-63
2022/06/06 11:15:59;;;;;;;;;;;;;;;26.72;42.33;94398.31;4917332;29;7708;-64
2022/06/06 11:19:07;;;;;;;;;;;;;;;26.73;42.89;94403.34;4918354;29;7626;-63
2022/06/06 11:21:59;;;;;;;;;;;;;;;26.74;42.84;94404.09;4918036;29;9304;-63
2022/06/06 11:24:39;;;;;;;;;;;;;;;26.75;42.31;94400.09;4918110;29;7925;-63
2022/06/06 11:27:45;;;;;;;;;;;;;;;26.76;42.83;94396.03;4917827;29;7285;-63
2022/06/06 11:30:46;;;;;;;;;;;;;;;26.77;42.55;94400.31;4919477;29;9092;-63
2022/06/06 11:33:42;;;;;;;;;;;;;;;26.76;42.71;94396.78;4917748;29;9377;-63
2022/06/06 11:36:17;;;;;;;;;;;;;;;26.79;42.18;94389.50;4913281;29;7131;-63
2022/06/06 11:39:01;;;;;;;;;;;;;;;26.81;41.88;94392.47;4929600;29;9848;-63
2022/06/06 11:41:41;;;;;;;;;;;;;;;26.80;42.73;94388.22;4994526;28;7371;-64
2022/06/06 11:44:36;;;;;;;;;;;;;;;26.83;42.94;94389.94;5028986;28;6989;-63
2022/06/06 11:47:38;;;;;;;;;;;;;;;26.86;42.76;94383.41;4995305;28;9111;-63
2022/06/06 11:50:35;;;;;;;;;;;;;;;26.87;42.25;94388.41;4995805;28;7682;-63
2022/06/06 11:53:41;;;;;;;;;;;;;;;26.87;42.76;94385.63;5013105;28;7216;-63
2022/06/06 11:56:26;;;;;;;;;;;;;;;26.88;42.16;94381.59;5019225;28;7288;-63
2022/06/06 11:59:10;;;;;;;;;;;;;;;26.91;42.79;94374.28;4995636;28;9050;-64
2022/06/06 12:02:05;;;;;;;;;;;;;;;26.90;42.42;94373.53;5008136;28;9188;-63
2022/06/06 12:05:19;;;;;;;;;;;;;;;26.92;41.92;94371.00;5001473;28;7577;-63
2022/06/06 12:08:22;;;;;;;;;;;;;;;26.95;42.49;94366.47;4951802;28;7326;-64
2022/06/06 12:11:21;;;;;;;;;;;;;;;26.94;41.95;94356.69;4947710;28;9239;-64
2022/06/06 12:13:53;;;;;;;;;;;;;;;26.94;41.83;94358.72;4932386;29;9455;-63
2022/06/06 12:17:03;;;;;;;;;;;;;;;26.96;42.60;94356.19;4943731;28;9026;-64
2022/06/06 12:19:48;;;;;;;;;;;;;;;26.97;42.77;94366.69;4910345;29;9182;-63
2022/06/06 12:22:34;;;;;;;;;;;;;;;26.98;42.58;94359.91;4911364;29;7285;-63
2022/06/06 12:25:25;;;;;;;;;;;;;;;26.99;42.68;94353.09;4909337;29;9042;-64
2022/06/06 12:28:15;;;;;;;;;;;;;;;27.00;42.38;94349.09;4884924;29;7285;-64
2022/06/06 12:31:08;;;;;;;;;;;;;;;27.01;41.91;94345.06;4908407;29;9451;-64
2022/06/06 12:33:54;;;;;;;;;;;;;;;27.04;42.70;94340.50;4894566;29;9376;-64
2022/06/06 12:36:33;;;;;;;;;;;;;;;27.05;42.31;94345.53;4900659;29;9096;-64
2022/06/06 12:39:35;;;;;;;;;;;;;;;27.05;41.89;94351.03;4909421;29;9173;-63
2022/06/06 12:42:01;;;;;;;;;;;;;;;27.04;42.01;94337.75;4908910;29;6871;-63
2022/06/06 12:44:39;;;;;;;;;;;;;;;27.06;42.54;94333.19;4931451;29;6934;-63
2022/06/06 12:47:43;;;;;;;;;;;;;;;27.09;41.91;94332.16;4935392;29;9456;-63
2022/06/06 12:50:46;;;;;;;;;;;;;;;27.09;42.44;94323.13;4927332;29;8758;-63
2022/06/06 12:54:01;;;;;;;;;;;;;;;27.09;42.27;94334.16;4951515;29;9103;-63
2022/06/06 12:56:53;;;;;;;;;;;;;;;27.09;42.97;94329.41;4962968;28;7922;-63
2022/06/06 12:59:25;;;;;;;;;;;;;;;27.12;42.33;94322.81;4971028;28;7280;-64
2022/06/06 13:02:08;;;;;;;;;;;;;;;27.13;42.19;94318.81;4976595;28;9211;-63
2022/06/06 13:05:09;;;;;;;;;;;;;;;27.13;42.28;94318.06;5032029;28;7418;-64
2022/06/06 13:07:53;;;;;;;;;;;;;;;27.15;42.88;94315.50;5010260;28;9170;-63
2022/06/06 13:11:12;;;;;;;;;;;;;;;27.18;42.25;94314.47;5014005;28;7967;-64
2022/06/06 13:14:05;;;;;;;;;;;;;;;27.19;41.95;94322.22;4994072;28;9482;-64
2022/06/06 13:16:55;;;;;;;;;;;;;;;27.20;41.96;94315.44;5000704;28;9119;-63
2022/06/06 13:20:10;;;;;;;;;;;;;;;27.20;42.15;94315.44;5012234;28;7873;-64
2022/06/06 13:23:13;;;;;;;;;;;;;;;27.21;42.50;94318.97;4953167;28;7157;-64
2022/06/06 13:26:10;;;;;;;;;;;;;;;27.21;42.28;94307.91;4951805;28;7336;-63
2022/06/06 13:28:57;;;;;;;;;;;;;;;27.22;41.97;94315.66;4937384;28;7995;-63
2022/06/06 13:31:52;;;;;;;;;;;;;;;27.22;42.06;94312.16;4938074;28;7408;-63
2022/06/06 13:35:05;;;;;;;;;;;;;;;27.22;42.80;94323.19;4955334;28;7043;-62
2022/06/06 13:37:51;;;;;;;;;;;;;;;27.23;42.37;94311.63;4933117;29;9144;-63
2022/06/06 13:40:44;;;;;;;;;;;;;;;27.24;42.26;94310.38;4936040;29;9033;-63
2022/06/06 13:43:41;;;;;;;;;;;;;;;27.24;42.40;94313.13;4935925;29;7046;-63
2022/06/06 13:46:26;;;;;;;;;;;;;;;27.24;42.62;94306.84;4936732;28;8510;-64
2022/06/06 13:49:02;;;;;;;;;;;;;;;27.24;42.58;94304.84;4951142;28;7192;-64
2022/06/06 13:51:49;;;;;;;;;;;;;;;27.26;43.03;94307.84;4937372;28;7449;-63
2022/06/06 13:54:36;;;;;;;;;;;;;;;27.26;42.58;94305.06;5009375;28;7558;-63
2022/06/06 13:57:20;;;;;;;;;;;;;;;27.27;42.31;94303.81;5006089;28;8585;-63
2022/06/06 14:00:29;;;;;;;;;;;;;;;27.29;41.92;94297.75;5016159;28;9087;-63
2022/06/06 14:03:35;;;;;;;;;;;;;;;27.29;42.05;94295.75;5004638;28;9036;-63
2022/06/06 14:06:36;;;;;;;;;;;;;;;27.29;42.49;94292.22;5031818;28;9122;-63
2022/06/06 14:09:05;;;;;;;;;;;;;;;27.32;42.07;94294.69;4951056;28;7491;-63
2022/06/06 14:11:37;;;;;;;;;;;;;;;27.32;41.91;94291.91;4935117;28;7310;-63
2022/06/06 14:14:04;;;;;;;;;;;;;;;27.31;42.38;94293.19;4950957;28;7084;-63
2022/06/06 14:16:53;;;;;;;;;;;;;;;27.33;41.91;94295.44;4933423;28;7090;-64
2022/06/06 14:19:20;;;;;;;;;;;;;;;27.34;42.27;94272.81;4933974;28;9179;-64
2022/06/06 14:21:58;;;;;;;;;;;;;;;27.34;42.38;94283.84;4934090;28;7312;-63
2022/06/06 14:24:54;;;;;;;;;;;;;;;27.32;42.29;94272.59;4936149;28;7693;-63
2022/06/06 14:27:22;;;;;;;;;;;;;;;27.36;42.94;94269.56;4825078;29;9485;-63
2022/06/06 14:29:51;;;;;;;;;;;;;;;27.36;42.34;94278.56;4834889;29;7234;-63
2022/06/06 14:32:25;;;;;;;;;;;;;;;27.36;42.13;94275.81;4832575;29;9155;-64
2022/06/06 14:34:56;;;;;;;;;;;;;;;27.38;42.08;94273.28;4838225;29;6975;-64
2022/06/06 14:37:36;;;;;;;;;;;;;;;27.40;42.11;94272.75;4839398;29;6861;-64
2022/06/06 14:40:07;;;;;;;;;;;;;;;27.38;42.11;94272.53;4823266;29;7125;-64
2022/06/06 14:42:54;;;;;;;;;;;;;;;27.37;42.01;94273.81;4837110;29;7404;-63
2022/06/06 14:45:30;;;;;;;;;;;;;;;27.37;42.13;94271.78;4847168;29;7126;-63
2022/06/06 14:48:16;;;;;;;;;;;;;;;27.39;42.32;94269.25;4904250;29;9487;-63
2022/06/06 14:51:06;;;;;;;;;;;;;;;27.43;41.65;94279.97;4909962;29;7427;-63
2022/06/06 14:53:52;;;;;;;;;;;;;;;27.43;41.91;94271.69;4912063;29;9102;-63
2022/06/06 14:56:17;;;;;;;;;;;;;;;27.41;41.00;94272.22;4906254;29;7183;-64
2022/06/06 14:58:57;;;;;;;;;;;;;;;27.44;40.28;94270.44;4906782;29;9176;-64
2022/06/06 15:01:25;;;;;;;;;;;;;;;27.41;39.82;94266.72;4903382;29;7283;-64
2022/06/06 15:03:56;;;;;;;;;;;;;;;27.37;39.85;94271.78;4975886;28;8728;-64
2022/06/06 15:06:27;;;;;;;;;;;;;;;27.36;39.43;94264.03;5023725;28;7139;-64
2022/06/06 15:09:17;;;;;;;;;;;;;;;27.34;39.75;94270.03;5024880;28;7622;-65
2022/06/06 15:11:44;;;;;;;;;;;;;;;27.32;39.72;94263.53;5009513;28;9471;-64